Time;durP1;ratioP1;P1;durP2;ratioP2;P2;SDS_P1;SDS_P2;PMS_P1;PMS_P2;Temp;Humidity;BMP_temperature;BMP_pressure;BME280_temperature;BME280_humidity;BME280_pressure;Samples;Min_cycle;Max_cycle;Signal;HPM_P1;HPM_P2
2020/03/31 00:00:01;;;;;;;1.77;1.67;;;;;;;19.39;29.46;101428.66;;;;-49
2020/03/31 00:04:02;;;;;;;1.81;1.71;;;;;;;19.37;29.49;101433.86;;;;-49
2020/03/31 00:10:02;;;;;;;1.70;1.60;;;;;;;19.35;29.54;101434.61;;;;-49
2020/03/31 00:16:02;;;;;;;1.77;1.67;;;;;;;19.32;29.57;101430.59;;;;-49
2020/03/31 00:22:02;;;;;;;1.73;1.62;;;;;;;19.30;29.55;101429.78;;;;-49
2020/03/31 00:25:02;;;;;;;1.79;1.69;;;;;;;19.29;29.58;101424.70;;;;-49
2020/03/31 00:29:02;;;;;;;2.13;1.82;;;;;;;19.28;29.56;101426.31;;;;-49
2020/03/31 00:34:02;;;;;;;1.83;1.72;;;;;;;19.25;29.56;101424.73;;;;-49
2020/03/31 00:38:02;;;;;;;1.85;1.73;;;;;;;19.23;29.62;101420.59;;;;-49
2020/03/31 00:44:02;;;;;;;2.07;1.79;;;;;;;19.21;29.61;101429.86;;;;-49
2020/03/31 00:53:28;;;;;;;1.71;1.61;;;;;;;19.17;29.63;101421.00;;;;-50
2020/03/31 00:59:27;;;;;;;1.81;1.70;;;;;;;19.16;29.62;101418.31;;;;-49
2020/03/31 01:04:27;;;;;;;1.74;1.64;;;;;;;19.12;29.66;101411.12;;;;-50
2020/03/31 01:13:54;;;;;;;1.75;1.64;;;;;;;19.09;29.71;101414.78;;;;-50
2020/03/31 01:16:54;;;;;;;2.73;1.70;;;;;;;19.08;29.71;101412.50;;;;-48
2020/03/31 01:21:54;;;;;;;2.89;1.70;;;;;;;19.06;29.72;101412.04;;;;-49
2020/03/31 01:25:57;;;;;;;1.81;1.71;;;;;;;19.06;29.71;101409.45;;;;-50
2020/03/31 01:28:54;;;;;;;2.35;1.84;;;;;;;19.05;29.70;101408.80;;;;-50
2020/03/31 01:31:54;;;;;;;2.14;1.92;;;;;;;19.03;29.73;101408.78;;;;-49
2020/03/31 01:34:54;;;;;;;1.88;1.69;;;;;;;19.02;29.67;101408.72;;;;-50
2020/03/31 01:37:54;;;;;;;3.03;1.80;;;;;;;19.01;29.78;101409.77;;;;-49
2020/03/31 01:40:54;;;;;;;1.91;1.75;;;;;;;19.01;29.72;101411.84;;;;-49
2020/03/31 01:46:54;;;;;;;1.79;1.69;;;;;;;18.99;29.76;101396.98;;;;-49
2020/03/31 01:49:54;;;;;;;1.97;1.70;;;;;;;18.98;29.78;101405.05;;;;-50
2020/03/31 01:52:54;;;;;;;1.71;1.61;;;;;;;18.97;29.76;101409.52;;;;-50
2020/03/31 01:55:54;;;;;;;1.89;1.79;;;;;;;18.97;29.78;101409.73;;;;-49
2020/03/31 01:58:54;;;;;;;1.78;1.68;;;;;;;18.95;29.79;101409.91;;;;-49
2020/03/31 02:01:53;;;;;;;1.72;1.62;;;;;;;18.94;29.83;101408.27;;;;-50
2020/03/31 02:04:53;;;;;;;2.07;1.87;;;;;;;18.93;29.83;101413.97;;;;-50
2020/03/31 02:07:54;;;;;;;1.84;1.65;;;;;;;18.93;29.75;101416.19;;;;-49
2020/03/31 02:10:54;;;;;;;1.93;1.81;;;;;;;18.92;29.78;101417.91;;;;-50
2020/03/31 02:15:54;;;;;;;2.06;1.86;;;;;;;18.90;29.82;101412.53;;;;-50
2020/03/31 02:19:54;;;;;;;1.90;1.79;;;;;;;18.88;29.80;101406.63;;;;-50
2020/03/31 02:22:53;;;;;;;1.79;1.66;;;;;;;18.88;29.82;101403.04;;;;-49
2020/03/31 02:26:54;;;;;;;2.41;1.84;;;;;;;18.87;29.80;101405.66;;;;-48
2020/03/31 02:29:54;;;;;;;1.78;1.68;;;;;;;18.86;29.83;101404.75;;;;-48
2020/03/31 02:32:54;;;;;;;1.91;1.74;;;;;;;18.86;29.85;101403.87;;;;-50
2020/03/31 02:35:54;;;;;;;1.93;1.79;;;;;;;18.84;29.84;101403.91;;;;-50
2020/03/31 02:38:54;;;;;;;1.83;1.73;;;;;;;18.84;29.84;101407.77;;;;-49
2020/03/31 02:41:53;;;;;;;1.69;1.59;;;;;;;18.82;29.89;101410.53;;;;-47
2020/03/31 02:44:54;;;;;;;2.19;1.99;;;;;;;18.83;29.86;101413.05;;;;-50
2020/03/31 02:47:54;;;;;;;2.26;1.79;;;;;;;18.81;29.92;101412.75;;;;-49
2020/03/31 02:50:54;;;;;;;1.82;1.69;;;;;;;18.80;29.80;101412.48;;;;-50
2020/03/31 02:53:54;;;;;;;1.78;1.68;;;;;;;18.80;29.86;101414.81;;;;-50
2020/03/31 02:56:54;;;;;;;2.12;1.92;;;;;;;18.80;29.88;101418.83;;;;-50
2020/03/31 02:59:54;;;;;;;1.81;1.71;;;;;;;18.78;29.92;101416.30;;;;-50
2020/03/31 03:03:04;;;;;;;1.85;1.75;;;;;;;18.77;29.85;101423.55;;;;-50
2020/03/31 03:05:54;;;;;;;2.07;1.87;;;;;;;18.76;29.86;101425.55;;;;-50
2020/03/31 03:08:53;;;;;;;1.98;1.80;;;;;;;18.76;29.88;101422.36;;;;-50
2020/03/31 03:11:54;;;;;;;2.15;1.95;;;;;;;18.75;29.92;101423.80;;;;-50
2020/03/31 03:14:54;;;;;;;1.99;1.87;;;;;;;18.74;29.88;101427.44;;;;-49
2020/03/31 03:17:54;;;;;;;1.99;1.89;;;;;;;18.74;29.91;101429.34;;;;-50
2020/03/31 03:20:54;;;;;;;1.84;1.70;;;;;;;18.73;29.91;101428.86;;;;-49
2020/03/31 03:23:53;;;;;;;2.04;1.80;;;;;;;18.72;29.94;101423.61;;;;-48
2020/03/31 03:26:53;;;;;;;2.06;1.87;;;;;;;18.72;29.94;101428.31;;;;-49
2020/03/31 03:29:54;;;;;;;1.90;1.80;;;;;;;18.70;29.98;101430.30;;;;-50
2020/03/31 03:32:54;;;;;;;2.06;1.84;;;;;;;18.70;30.00;101423.16;;;;-50
2020/03/31 03:35:54;;;;;;;1.87;1.77;;;;;;;18.70;30.00;101421.42;;;;-50
2020/03/31 03:38:54;;;;;;;2.11;1.91;;;;;;;18.70;30.05;101420.64;;;;-49
2020/03/31 03:41:54;;;;;;;2.00;1.80;;;;;;;18.69;30.05;101418.70;;;;-50
2020/03/31 03:44:53;;;;;;;1.85;1.75;;;;;;;18.71;30.07;101418.53;;;;-50
2020/03/31 03:47:53;;;;;;;1.86;1.72;;;;;;;18.71;30.08;101421.00;;;;-49
2020/03/31 03:50:54;;;;;;;1.90;1.74;;;;;;;18.73;30.12;101412.97;;;;-50
2020/03/31 03:53:55;;;;;;;1.89;1.79;;;;;;;18.74;30.12;101413.55;;;;-50
2020/03/31 03:56:57;;;;;;;1.79;1.69;;;;;;;18.75;30.28;101411.38;;;;-50
2020/03/31 04:00:03;;;;;;;2.04;1.84;;;;;;;18.79;30.35;101413.08;;;;-50
2020/03/31 04:02:53;;;;;;;2.04;1.79;;;;;;;18.82;30.37;101416.95;;;;-50
2020/03/31 04:05:53;;;;;;;2.10;1.89;;;;;;;18.86;30.26;101422.45;;;;-49
2020/03/31 04:08:54;;;;;;;1.83;1.73;;;;;;;18.90;30.25;101423.53;;;;-49
2020/03/31 04:11:54;;;;;;;2.00;1.77;;;;;;;18.93;30.25;101420.92;;;;-50
2020/03/31 04:14:54;;;;;;;1.87;1.77;;;;;;;19.00;30.17;101423.59;;;;-50
2020/03/31 04:17:54;;;;;;;2.13;1.93;;;;;;;19.04;30.27;101423.30;;;;-50
2020/03/31 04:20:54;;;;;;;1.99;1.81;;;;;;;19.08;30.26;101424.72;;;;-50
2020/03/31 04:23:53;;;;;;;2.19;1.90;;;;;;;19.13;30.30;101427.94;;;;-50
2020/03/31 04:26:53;;;;;;;2.06;1.80;;;;;;;19.17;30.21;101431.44;;;;-49
2020/03/31 04:29:53;;;;;;;1.90;1.79;;;;;;;19.20;30.32;101436.70;;;;-49
2020/03/31 04:32:54;;;;;;;1.94;1.78;;;;;;;19.22;30.35;101435.11;;;;-48
2020/03/31 04:35:54;;;;;;;1.86;1.73;;;;;;;19.25;30.31;101440.88;;;;-50
2020/03/31 04:38:54;;;;;;;1.96;1.75;;;;;;;19.28;30.36;101443.08;;;;-50
2020/03/31 04:41:53;;;;;;;1.97;1.79;;;;;;;19.31;30.40;101446.61;;;;-50
2020/03/31 04:44:53;;;;;;;1.96;1.85;;;;;;;19.35;30.40;101459.30;;;;-48
2020/03/31 04:47:53;;;;;;;2.21;1.99;;;;;;;19.40;30.30;101461.73;;;;-50
2020/03/31 04:50:54;;;;;;;1.83;1.69;;;;;;;19.42;30.33;101465.70;;;;-50
2020/03/31 04:53:54;;;;;;;2.60;1.80;;;;;;;19.46;30.37;101463.22;;;;-50
2020/03/31 04:56:54;;;;;;;2.00;1.83;;;;;;;19.51;30.31;101464.13;;;;-50
2020/03/31 04:59:54;;;;;;;2.01;1.83;;;;;;;19.53;30.34;101471.12;;;;-48
2020/03/31 05:02:53;;;;;;;1.98;1.83;;;;;;;19.56;30.23;101479.25;;;;-48
2020/03/31 05:05:53;;;;;;;2.50;1.80;;;;;;;19.57;30.31;101483.33;;;;-48
2020/03/31 05:08:53;;;;;;;2.13;1.93;;;;;;;19.60;30.36;101488.70;;;;-48
2020/03/31 05:11:54;;;;;;;1.81;1.70;;;;;;;19.66;30.22;101491.73;;;;-48
2020/03/31 05:14:54;;;;;;;1.90;1.76;;;;;;;19.66;30.22;101495.83;;;;-48
2020/03/31 05:17:54;;;;;;;2.01;1.81;;;;;;;19.70;30.29;101497.75;;;;-50
2020/03/31 05:20:53;;;;;;;1.85;1.75;;;;;;;19.74;30.17;101504.91;;;;-50
2020/03/31 05:23:53;;;;;;;2.12;1.92;;;;;;;19.75;30.28;101500.90;;;;-50
2020/03/31 05:26:54;;;;;;;2.63;1.87;;;;;;;19.76;30.20;101505.50;;;;-50
2020/03/31 05:29:54;;;;;;;1.83;1.70;;;;;;;19.80;30.19;101509.03;;;;-50
2020/03/31 05:32:54;;;;;;;1.80;1.70;;;;;;;19.82;30.28;101503.77;;;;-50
2020/03/31 05:35:54;;;;;;;1.79;1.69;;;;;;;19.84;30.18;101513.02;;;;-50
2020/03/31 05:38:54;;;;;;;3.03;1.83;;;;;;;19.86;30.20;101510.12;;;;-50
2020/03/31 05:41:53;;;;;;;2.00;1.80;;;;;;;19.91;30.18;101512.09;;;;-50
2020/03/31 05:44:53;;;;;;;1.95;1.82;;;;;;;19.92;30.19;101519.42;;;;-50
2020/03/31 05:47:56;;;;;;;1.87;1.75;;;;;;;19.94;30.13;101519.42;;;;-50
2020/03/31 05:51:09;;;;;;;1.88;1.78;;;;;;;19.96;30.19;101529.55;;;;-50
2020/03/31 05:53:54;;;;;;;1.81;1.71;;;;;;;19.99;30.14;101531.27;;;;-48
2020/03/31 05:56:54;;;;;;;1.71;1.61;;;;;;;20.01;30.18;101533.63;;;;-50
2020/03/31 05:59:53;;;;;;;1.83;1.70;;;;;;;20.04;30.13;101536.49;;;;-50
2020/03/31 06:02:53;;;;;;;1.73;1.63;;;;;;;20.03;30.15;101531.52;;;;-50
2020/03/31 06:05:53;;;;;;;1.87;1.72;;;;;;;20.08;30.13;101535.73;;;;-50
2020/03/31 06:08:54;;;;;;;1.90;1.76;;;;;;;20.10;30.09;101532.61;;;;-50
2020/03/31 06:15:16;;;;;;;1.82;1.72;;;;;;;20.16;30.07;101536.87;;;;-48
2020/03/31 06:18:16;;;;;;;2.00;1.79;;;;;;;20.16;30.10;101535.27;;;;-50
2020/03/31 06:21:16;;;;;;;1.84;1.73;;;;;;;20.20;30.04;101538.45;;;;-50
2020/03/31 06:24:16;;;;;;;1.69;1.59;;;;;;;20.20;30.07;101542.30;;;;-50
2020/03/31 06:27:16;;;;;;;1.83;1.73;;;;;;;20.22;30.00;101542.94;;;;-49
2020/03/31 06:30:16;;;;;;;1.79;1.66;;;;;;;20.23;30.07;101549.93;;;;-50
2020/03/31 06:33:16;;;;;;;1.77;1.61;;;;;;;20.23;30.06;101550.38;;;;-50
2020/03/31 06:36:16;;;;;;;1.91;1.71;;;;;;;20.25;29.98;101550.39;;;;-50
2020/03/31 06:39:16;;;;;;;1.79;1.69;;;;;;;20.25;29.97;101556.42;;;;-50
2020/03/31 06:42:16;;;;;;;1.71;1.61;;;;;;;20.26;30.04;101550.00;;;;-50
2020/03/31 06:45:16;;;;;;;1.60;1.50;;;;;;;20.26;29.94;101556.42;;;;-50
2020/03/31 06:48:16;;;;;;;1.55;1.45;;;;;;;20.26;30.00;101557.20;;;;-50
2020/03/31 06:51:16;;;;;;;1.84;1.71;;;;;;;20.28;29.96;101563.31;;;;-50
2020/03/31 06:54:16;;;;;;;1.89;1.73;;;;;;;20.29;30.03;101566.22;;;;-50
2020/03/31 06:57:16;;;;;;;1.89;1.70;;;;;;;20.30;29.99;101570.53;;;;-50
2020/03/31 07:00:16;;;;;;;1.71;1.61;;;;;;;20.31;29.96;101568.92;;;;-50
2020/03/31 07:03:16;;;;;;;1.75;1.65;;;;;;;20.32;29.99;101572.88;;;;-50
2020/03/31 07:06:16;;;;;;;1.73;1.60;;;;;;;20.34;29.90;101570.22;;;;-50
2020/03/31 07:09:16;;;;;;;1.80;1.68;;;;;;;20.35;29.94;101576.48;;;;-50
2020/03/31 07:12:16;;;;;;;1.57;1.47;;;;;;;20.36;29.85;101571.00;;;;-50
2020/03/31 07:15:16;;;;;;;1.70;1.60;;;;;;;20.36;29.86;101582.17;;;;-50
2020/03/31 07:18:16;;;;;;;1.79;1.69;;;;;;;20.40;29.92;101586.84;;;;-48
2020/03/31 07:21:16;;;;;;;1.58;1.48;;;;;;;20.41;29.85;101591.50;;;;-48
2020/03/31 07:24:16;;;;;;;3.33;1.65;;;;;;;20.49;29.96;101592.47;;;;-50
2020/03/31 07:27:16;;;;;;;2.47;1.39;;;;;;;20.46;29.92;101592.06;;;;-51
2020/03/31 07:30:16;;;;;;;1.96;1.51;;;;;;;20.46;29.87;101592.34;;;;-51
2020/03/31 07:33:16;;;;;;;1.79;1.49;;;;;;;20.48;29.84;101594.64;;;;-50
2020/03/31 07:36:16;;;;;;;2.29;1.45;;;;;;;20.48;29.95;101599.35;;;;-51
2020/03/31 07:39:16;;;;;;;1.72;1.42;;;;;;;20.48;29.84;101596.14;;;;-50
2020/03/31 07:42:16;;;;;;;1.60;1.50;;;;;;;20.50;29.87;101598.91;;;;-51
2020/03/31 07:45:16;;;;;;;1.58;1.48;;;;;;;20.51;29.78;101604.61;;;;-50
2020/03/31 07:48:16;;;;;;;1.61;1.51;;;;;;;20.50;29.85;101610.03;;;;-50
2020/03/31 07:51:30;;;;;;;1.67;1.57;;;;;;;20.52;29.90;101607.02;;;;-50
2020/03/31 07:54:16;;;;;;;1.82;1.57;;;;;;;20.54;29.81;101611.89;;;;-50
2020/03/31 07:57:16;;;;;;;1.61;1.51;;;;;;;20.55;29.77;101615.48;;;;-50
2020/03/31 08:00:16;;;;;;;1.86;1.40;;;;;;;20.55;29.72;101618.34;;;;-51
2020/03/31 08:03:16;;;;;;;1.61;1.50;;;;;;;20.56;29.71;101618.06;;;;-49
2020/03/31 08:08:16;;;;;;;1.70;1.45;;;;;;;20.55;29.73;101624.05;;;;-49
2020/03/31 08:13:16;;;;;;;2.18;1.49;;;;;;;20.54;29.99;101623.08;;;;-49
2020/03/31 08:16:15;;;;;;;2.93;1.50;;;;;;;20.56;30.07;101625.28;;;;-49
2020/03/31 08:19:15;;;;;;;3.45;1.50;;;;;;;20.56;30.65;101624.66;;;;-49
2020/03/31 08:24:16;;;;;;;1.93;1.49;;;;;;;20.57;30.66;101626.84;;;;-51
2020/03/31 08:30:16;;;;;;;1.57;1.40;;;;;;;20.58;30.15;101616.09;;;;-48
2020/03/31 08:34:16;;;;;;;2.53;1.51;;;;;;;20.59;30.41;101618.08;;;;-49
2020/03/31 08:38:16;;;;;;;4.25;1.55;;;;;;;20.61;29.88;101619.53;;;;-52
2020/03/31 08:41:16;;;;;;;2.12;1.59;;;;;;;20.60;29.70;101618.79;;;;-50
2020/03/31 08:44:16;;;;;;;2.15;1.49;;;;;;;20.58;29.19;101619.84;;;;-50
2020/03/31 08:47:16;;;;;;;1.51;1.39;;;;;;;20.57;29.44;101620.64;;;;-50
2020/03/31 08:50:16;;;;;;;2.29;1.51;;;;;;;20.56;29.35;101614.13;;;;-50
2020/03/31 08:53:15;;;;;;;3.74;1.60;;;;;;;20.55;29.11;101614.65;;;;-51
2020/03/31 08:56:15;;;;;;;2.21;1.50;;;;;;;20.54;28.70;101617.38;;;;-50
2020/03/31 08:59:16;;;;;;;4.22;1.63;;;;;;;20.58;29.76;101620.87;;;;-49
2020/03/31 09:03:16;;;;;;;1.50;1.40;;;;;;;20.62;29.68;101625.12;;;;-51
2020/03/31 09:06:16;;;;;;;5.45;1.72;;;;;;;20.65;30.04;101623.45;;;;-47
2020/03/31 09:10:16;;;;;;;5.39;1.49;;;;;;;20.69;30.25;101622.23;;;;-55
2020/03/31 09:15:16;;;;;;;2.36;1.40;;;;;;;20.74;30.16;101620.68;;;;-54
2020/03/31 09:18:16;;;;;;;1.87;1.50;;;;;;;20.75;30.24;101622.69;;;;-51
2020/03/31 09:21:16;;;;;;;2.10;1.40;;;;;;;20.77;30.54;101623.31;;;;-55
2020/03/31 09:24:16;;;;;;;2.17;1.39;;;;;;;20.77;29.91;101618.06;;;;-57
2020/03/31 09:27:16;;;;;;;2.29;1.69;;;;;;;20.78;30.34;101614.52;;;;-47
2020/03/31 09:30:16;;;;;;;2.43;1.40;;;;;;;20.78;30.28;101613.08;;;;-47
2020/03/31 09:39:42;;;;;;;1.60;1.50;;;;;;;20.84;30.75;101619.23;;;;-49
2020/03/31 09:44:42;;;;;;;1.73;1.47;;;;;;;20.85;30.22;101617.99;;;;-55
2020/03/31 09:50:42;;;;;;;2.51;1.43;;;;;;;20.86;30.55;101625.38;;;;-51
2020/03/31 09:54:42;;;;;;;2.30;1.48;;;;;;;20.87;30.51;101624.66;;;;-50
2020/03/31 10:00:42;;;;;;;2.57;1.45;;;;;;;20.88;30.76;101624.67;;;;-49
2020/03/31 10:05:42;;;;;;;1.95;1.37;;;;;;;20.88;30.47;101620.17;;;;-53
2020/03/31 10:15:08;;;;;;;1.65;1.31;;;;;;;20.89;30.88;101614.59;;;;-52
2020/03/31 10:20:08;;;;;;;12.53;1.50;;;;;;;20.92;31.04;101608.61;;;;-51
2020/03/31 10:25:09;;;;;;;6.65;1.63;;;;;;;20.91;30.78;101605.98;;;;-54
2020/03/31 10:29:08;;;;;;;2.87;1.45;;;;;;;20.92;30.85;101605.97;;;;-51
2020/03/31 10:35:08;;;;;;;1.89;1.41;;;;;;;20.91;30.11;101604.19;;;;-60
2020/03/31 10:41:08;;;;;;;3.87;1.73;;;;;;;20.93;31.04;101605.03;;;;-51
2020/03/31 10:45:08;;;;;;;4.03;1.55;;;;;;;20.93;30.50;101597.86;;;;-60
2020/03/31 10:55:08;;;;;;;2.11;1.25;;;;;;;20.95;30.68;101582.76;;;;-48
2020/03/31 11:00:08;;;;;;;2.17;1.51;;;;;;;20.89;29.06;101580.66;;;;-47
2020/03/31 11:03:08;;;;;;;1.85;1.47;;;;;;;20.87;28.89;101578.88;;;;-48
2020/03/31 11:06:09;;;;;;;2.79;1.43;;;;;;;20.85;29.05;101572.66;;;;-50
2020/03/31 11:09:09;;;;;;;2.26;1.41;;;;;;;20.87;29.17;101568.30;;;;-50
2020/03/31 11:14:09;;;;;;;2.67;1.53;;;;;;;20.89;29.43;101568.18;;;;-50
2020/03/31 11:20:08;;;;;;;3.81;1.52;;;;;;;20.91;29.49;101562.37;;;;-50
2020/03/31 11:23:08;;;;;;;4.18;1.50;;;;;;;20.90;29.45;101555.71;;;;-50
2020/03/31 11:27:09;;;;;;;2.09;1.35;;;;;;;20.92;29.42;101553.86;;;;-50
2020/03/31 11:31:09;;;;;;;5.66;1.41;;;;;;;20.92;29.48;101556.82;;;;-50
2020/03/31 11:34:08;;;;;;;1.74;1.30;;;;;;;20.91;29.44;101556.95;;;;-50
2020/03/31 11:39:08;;;;;;;2.92;1.47;;;;;;;20.92;29.50;101553.80;;;;-50
2020/03/31 11:42:09;;;;;;;3.78;1.47;;;;;;;20.91;29.51;101548.14;;;;-50
2020/03/31 11:46:09;;;;;;;1.96;1.45;;;;;;;20.90;29.54;101549.42;;;;-50
2020/03/31 11:51:08;;;;;;;1.95;1.34;;;;;;;20.89;29.59;101541.22;;;;-50
2020/03/31 11:57:09;;;;;;;3.02;1.40;;;;;;;20.89;29.55;101541.94;;;;-50
2020/03/31 12:01:09;;;;;;;1.82;1.52;;;;;;;20.89;29.53;101544.39;;;;-50
2020/03/31 12:05:09;;;;;;;1.79;1.21;;;;;;;20.90;29.53;101542.94;;;;-50
2020/03/31 12:10:09;;;;;;;2.62;1.54;;;;;;;20.89;29.59;101546.02;;;;-49
2020/03/31 12:16:08;;;;;;;1.83;1.50;;;;;;;20.89;29.58;101552.73;;;;-50
2020/03/31 12:19:09;;;;;;;2.53;1.51;;;;;;;20.88;29.62;101545.95;;;;-50
2020/03/31 12:25:09;;;;;;;2.42;1.50;;;;;;;20.88;29.61;101549.77;;;;-50
2020/03/31 12:30:09;;;;;;;4.43;2.73;;;;;;;20.86;29.34;101542.78;;;;-51
2020/03/31 12:33:09;;;;;;;6.95;3.00;;;;;;;20.86;28.83;101547.92;;;;-50
2020/03/31 12:36:09;;;;;;;4.60;3.00;;;;;;;20.86;28.19;101539.08;;;;-51
2020/03/31 12:39:09;;;;;;;3.96;2.64;;;;;;;20.85;28.62;101534.27;;;;-51
2020/03/31 12:45:09;;;;;;;5.35;2.83;;;;;;;20.83;28.67;101529.84;;;;-59
2020/03/31 12:48:09;;;;;;;9.41;3.70;;;;;;;20.83;28.47;101530.23;;;;-49
2020/03/31 12:51:09;;;;;;;7.27;3.59;;;;;;;20.82;28.39;101525.41;;;;-53
2020/03/31 12:54:09;;;;;;;8.41;3.81;;;;;;;20.82;28.50;101521.95;;;;-55
2020/03/31 12:57:09;;;;;;;7.88;4.55;;;;;;;20.82;28.45;101514.72;;;;-56
2020/03/31 13:00:09;;;;;;;8.03;4.47;;;;;;;20.82;28.40;101507.06;;;;-53
2020/03/31 13:03:09;;;;;;;9.38;4.64;;;;;;;20.83;28.43;101503.32;;;;-55
2020/03/31 13:06:09;;;;;;;8.49;4.69;;;;;;;20.82;28.47;101502.74;;;;-59
2020/03/31 13:09:09;;;;;;;8.43;4.58;;;;;;;20.87;28.82;101501.70;;;;-54
2020/03/31 13:12:09;;;;;;;7.71;4.32;;;;;;;20.88;29.00;101499.02;;;;-48
2020/03/31 13:15:09;;;;;;;6.60;3.76;;;;;;;20.91;29.08;101494.48;;;;-52
2020/03/31 13:18:09;;;;;;;6.62;3.78;;;;;;;20.95;29.10;101492.00;;;;-51
2020/03/31 13:21:09;;;;;;;6.87;3.71;;;;;;;20.97;29.44;101494.47;;;;-49
2020/03/31 13:24:09;;;;;;;6.23;3.63;;;;;;;20.99;29.60;101483.65;;;;-53
2020/03/31 13:27:09;;;;;;;7.51;3.61;;;;;;;21.01;29.65;101488.03;;;;-51
2020/03/31 13:30:09;;;;;;;5.53;3.39;;;;;;;21.01;29.46;101484.55;;;;-50
2020/03/31 13:34:08;;;;;;;5.64;3.44;;;;;;;21.04;29.67;101475.83;;;;-50
2020/03/31 13:37:09;;;;;;;6.00;3.54;;;;;;;21.04;29.82;101468.55;;;;-51
2020/03/31 13:40:09;;;;;;;5.55;3.14;;;;;;;21.06;29.97;101472.75;;;;-51
2020/03/31 13:44:09;;;;;;;4.10;2.99;;;;;;;21.07;29.79;101476.66;;;;-54
2020/03/31 13:47:09;;;;;;;5.58;3.16;;;;;;;21.05;29.67;101472.67;;;;-51
2020/03/31 13:50:09;;;;;;;5.42;3.21;;;;;;;21.05;29.49;101466.14;;;;-49
2020/03/31 13:53:09;;;;;;;6.35;2.95;;;;;;;21.03;29.44;101463.39;;;;-51
2020/03/31 13:56:09;;;;;;;3.93;2.57;;;;;;;21.03;29.30;101458.25;;;;-51
2020/03/31 13:59:08;;;;;;;4.44;2.70;;;;;;;21.02;29.33;101456.27;;;;-51
2020/03/31 14:02:09;;;;;;;6.79;2.71;;;;;;;21.01;29.28;101462.17;;;;-51
2020/03/31 14:05:09;;;;;;;4.19;2.75;;;;;;;20.99;29.13;101459.20;;;;-51
2020/03/31 14:08:09;;;;;;;5.48;2.74;;;;;;;20.99;29.14;101466.42;;;;-51
2020/03/31 14:11:09;;;;;;;5.26;2.69;;;;;;;20.98;29.24;101457.68;;;;-50
2020/03/31 14:15:09;;;;;;;4.71;2.51;;;;;;;20.97;29.11;101460.15;;;;-51
2020/03/31 14:18:08;;;;;;;3.37;2.50;;;;;;;20.97;29.21;101453.09;;;;-51
2020/03/31 14:21:08;;;;;;;4.47;2.70;;;;;;;20.96;29.09;101454.22;;;;-51
2020/03/31 14:24:08;;;;;;;3.98;2.61;;;;;;;20.94;29.12;101445.88;;;;-51
2020/03/31 14:27:09;;;;;;;3.40;2.37;;;;;;;20.95;29.16;101451.36;;;;-51
2020/03/31 14:30:09;;;;;;;3.32;2.40;;;;;;;20.94;29.23;101445.71;;;;-51
2020/03/31 14:33:09;;;;;;;4.03;2.39;;;;;;;20.93;29.19;101447.50;;;;-51
2020/03/31 14:36:09;;;;;;;3.38;2.40;;;;;;;20.93;29.16;101449.51;;;;-45
2020/03/31 14:39:09;;;;;;;4.33;2.53;;;;;;;20.93;29.12;101445.27;;;;-46
2020/03/31 14:42:09;;;;;;;2.90;2.29;;;;;;;20.93;29.15;101451.75;;;;-45
2020/03/31 14:45:09;;;;;;;2.70;2.11;;;;;;;20.92;29.11;101450.30;;;;-45
2020/03/31 14:48:09;;;;;;;3.06;2.27;;;;;;;20.92;29.14;101444.03;;;;-45
2020/03/31 14:51:09;;;;;;;3.86;2.35;;;;;;;20.88;28.79;101444.53;;;;-46
2020/03/31 14:54:09;;;;;;;2.73;2.07;;;;;;;20.85;28.33;101445.98;;;;-46
2020/03/31 14:57:08;;;;;;;2.78;2.20;;;;;;;20.86;28.39;101447.45;;;;-48
2020/03/31 15:00:09;;;;;;;3.40;2.19;;;;;;;20.85;28.30;101439.73;;;;-49
2020/03/31 15:03:09;;;;;;;4.09;2.36;;;;;;;20.84;28.46;101435.54;;;;-46
2020/03/31 15:06:09;;;;;;;2.99;2.15;;;;;;;20.83;28.43;101435.80;;;;-47
2020/03/31 15:09:09;;;;;;;3.40;2.31;;;;;;;20.81;28.24;101433.07;;;;-49
2020/03/31 15:12:09;;;;;;;3.46;2.20;;;;;;;20.84;28.87;101438.27;;;;-49
2020/03/31 15:15:09;;;;;;;3.73;2.20;;;;;;;20.85;28.98;101438.83;;;;-48
2020/03/31 15:18:09;;;;;;;6.75;2.27;;;;;;;20.87;29.34;101430.20;;;;-47
2020/03/31 15:21:09;;;;;;;5.60;2.21;;;;;;;20.88;29.44;101434.97;;;;-49
2020/03/31 15:24:09;;;;;;;4.41;2.20;;;;;;;20.91;29.55;101431.16;;;;-47
2020/03/31 15:27:09;;;;;;;2.77;2.27;;;;;;;20.92;29.54;101431.05;;;;-48
2020/03/31 15:30:09;;;;;;;5.23;2.29;;;;;;;20.94;29.57;101430.41;;;;-50
2020/03/31 15:33:08;;;;;;;3.19;1.95;;;;;;;20.95;29.47;101433.05;;;;-48
2020/03/31 15:36:10;;;;;;;2.15;1.94;;;;;;;20.97;29.47;101430.98;;;;-51
2020/03/31 15:39:09;;;;;;;2.37;1.97;;;;;;;20.98;29.48;101432.20;;;;-50
2020/03/31 15:42:09;;;;;;;2.80;1.94;;;;;;;21.00;29.45;101426.84;;;;-48
2020/03/31 15:45:09;;;;;;;3.57;2.10;;;;;;;21.02;29.59;101427.39;;;;-48
2020/03/31 15:48:09;;;;;;;3.16;1.93;;;;;;;21.04;29.71;101432.43;;;;-52
2020/03/31 15:51:08;;;;;;;2.44;2.00;;;;;;;21.06;29.82;101429.96;;;;-51
2020/03/31 15:54:09;;;;;;;3.17;1.82;;;;;;;21.08;30.02;101437.29;;;;-53
2020/03/31 15:57:09;;;;;;;4.42;1.87;;;;;;;21.10;30.03;101435.44;;;;-46
2020/03/31 16:00:09;;;;;;;5.46;2.92;;;;;;;20.75;25.21;101439.15;;;;-46
2020/03/31 16:04:09;;;;;;;4.13;3.41;;;;;;;20.29;23.12;101431.78;;;;-50
2020/03/31 16:07:09;;;;;;;4.76;3.29;;;;;;;20.43;25.54;101428.34;;;;-47
2020/03/31 16:10:08;;;;;;;5.63;2.61;;;;;;;20.55;26.12;101429.35;;;;-57
2020/03/31 16:13:09;;;;;;;3.67;2.40;;;;;;;20.63;26.87;101427.34;;;;-45
2020/03/31 16:16:08;;;;;;;3.12;2.39;;;;;;;20.73;27.19;101435.02;;;;-47
2020/03/31 16:19:09;;;;;;;6.13;2.22;;;;;;;20.77;27.56;101439.88;;;;-47
2020/03/31 16:22:09;;;;;;;4.32;2.19;;;;;;;20.83;27.68;101437.16;;;;-46
2020/03/31 16:31:34;;;;;;;2.47;2.09;;;;;;;20.91;28.24;101446.45;;;;-46
2020/03/31 16:36:34;;;;;;;3.92;2.00;;;;;;;20.94;28.17;101446.54;;;;-46
2020/03/31 16:42:34;;;;;;;2.01;1.81;;;;;;;20.98;28.46;101461.88;;;;-48
2020/03/31 16:46:35;;;;;;;1.83;1.71;;;;;;;21.04;28.43;101463.50;;;;-48
2020/03/31 16:49:35;;;;;;;4.63;1.89;;;;;;;21.07;28.40;101464.23;;;;-48
2020/03/31 16:52:35;;;;;;;2.21;1.62;;;;;;;21.06;28.39;101468.53;;;;-48
2020/03/31 16:55:35;;;;;;;1.97;1.68;;;;;;;21.07;28.42;101471.10;;;;-49
2020/03/31 16:58:35;;;;;;;1.79;1.69;;;;;;;21.07;28.40;101473.79;;;;-48
2020/03/31 17:01:36;;;;;;;2.03;1.67;;;;;;;21.09;28.47;101472.57;;;;-48
2020/03/31 17:04:35;;;;;;;2.40;1.70;;;;;;;21.08;28.52;101468.92;;;;-48
2020/03/31 17:07:34;;;;;;;1.80;1.70;;;;;;;21.08;28.49;101475.02;;;;-50
2020/03/31 17:10:35;;;;;;;1.99;1.81;;;;;;;21.08;28.53;101472.02;;;;-48
2020/03/31 17:13:35;;;;;;;3.69;1.75;;;;;;;21.08;28.56;101469.83;;;;-48
2020/03/31 17:16:35;;;;;;;2.14;1.71;;;;;;;21.07;28.53;101469.88;;;;-48
2020/03/31 17:19:34;;;;;;;3.03;1.97;;;;;;;21.06;28.60;101470.84;;;;-48
2020/03/31 17:22:35;;;;;;;4.28;2.06;;;;;;;21.05;28.60;101470.05;;;;-50
2020/03/31 17:25:35;;;;;;;6.10;5.49;;;;;;;21.04;28.63;101479.51;;;;-48
2020/03/31 17:28:34;;;;;;;3.48;2.30;;;;;;;21.04;28.64;101477.11;;;;-48
2020/03/31 17:31:35;;;;;;;15.44;13.89;;;;;;;21.04;28.69;101468.82;;;;-48
2020/03/31 17:34:34;;;;;;;1.75;1.63;;;;;;;21.03;28.65;101470.45;;;;-48
2020/03/31 17:37:34;;;;;;;1.79;1.65;;;;;;;21.04;28.71;101467.31;;;;-48
2020/03/31 17:40:35;;;;;;;2.01;1.69;;;;;;;21.04;28.65;101467.31;;;;-47
2020/03/31 17:43:35;;;;;;;2.98;2.19;;;;;;;21.06;28.68;101466.91;;;;-48
2020/03/31 17:46:35;;;;;;;3.99;2.80;;;;;;;21.06;28.76;101472.12;;;;-48
2020/03/31 17:49:35;;;;;;;7.46;6.71;;;;;;;21.07;28.78;101473.98;;;;-48
2020/03/31 17:52:35;;;;;;;5.83;2.40;;;;;;;21.06;28.77;101472.05;;;;-48
2020/03/31 17:55:34;;;;;;;3.00;2.30;;;;;;;21.07;28.75;101474.80;;;;-48
2020/03/31 17:58:34;;;;;;;2.74;1.98;;;;;;;21.10;28.73;101473.97;;;;-48
2020/03/31 18:01:35;;;;;;;2.51;1.89;;;;;;;21.09;28.81;101478.66;;;;-48
2020/03/31 18:04:35;;;;;;;4.40;2.72;;;;;;;21.11;28.83;101487.50;;;;-49
2020/03/31 18:07:35;;;;;;;7.95;2.82;;;;;;;21.12;28.86;101488.02;;;;-49
2020/03/31 18:10:35;;;;;;;4.67;3.48;;;;;;;21.12;28.87;101487.06;;;;-48
2020/03/31 18:13:35;;;;;;;6.44;5.77;;;;;;;21.13;28.87;101485.83;;;;-48
2020/03/31 18:16:35;;;;;;;6.26;5.19;;;;;;;21.13;28.91;101488.69;;;;-48
2020/03/31 18:19:35;;;;;;;7.09;6.24;;;;;;;21.13;28.91;101486.27;;;;-47
2020/03/31 18:22:35;;;;;;;7.41;6.67;;;;;;;21.13;28.94;101495.01;;;;-47
2020/03/31 18:25:35;;;;;;;11.25;10.16;;;;;;;21.15;28.88;101501.12;;;;-48
2020/03/31 18:28:35;;;;;;;16.45;14.79;;;;;;;21.14;28.88;101504.13;;;;-50
2020/03/31 18:31:35;;;;;;;15.12;13.78;;;;;;;21.13;28.91;101507.84;;;;-49
2020/03/31 18:34:35;;;;;;;32.08;29.42;;;;;;;21.15;28.87;101515.56;;;;-49
2020/03/31 18:37:34;;;;;;;32.94;30.41;;;;;;;21.15;28.93;101514.72;;;;-43
2020/03/31 18:40:34;;;;;;;18.13;16.66;;;;;;;21.13;28.85;101513.61;;;;-44
2020/03/31 18:43:34;;;;;;;2.18;1.91;;;;;;;21.14;28.92;101511.75;;;;-43
2020/03/31 18:46:34;;;;;;;4.54;2.69;;;;;;;21.13;28.65;101511.97;;;;-48
2020/03/31 18:49:36;;;;;;;2.36;1.78;;;;;;;21.13;29.19;101510.97;;;;-44
2020/03/31 18:52:36;;;;;;;3.64;1.75;;;;;;;21.14;29.41;101520.26;;;;-45
2020/03/31 18:55:34;;;;;;;2.97;1.98;;;;;;;21.14;29.48;101520.26;;;;-47
2020/03/31 18:58:34;;;;;;;5.87;2.38;;;;;;;21.13;29.65;101516.75;;;;-47
2020/03/31 19:01:34;;;;;;;2.57;2.36;;;;;;;21.14;29.68;101515.96;;;;-47
2020/03/31 19:05:35;;;;;;;4.91;3.10;;;;;;;21.16;29.78;101515.05;;;;-49
2020/03/31 19:10:34;;;;;;;3.00;2.47;;;;;;;21.17;29.82;101516.28;;;;-52
2020/03/31 19:14:34;;;;;;;2.35;2.15;;;;;;;21.17;30.05;101514.16;;;;-47
2020/03/31 19:17:34;;;;;;;2.61;2.20;;;;;;;21.15;29.96;101514.83;;;;-47